Caneli — 2BHE7 — position and weather

sailwx.info

Track history (hours):
 
Tides and Currents Weather Stations Pressure Air Temp Water Temp Dewpoint Dewpoint Depression Visibility Wind Speed Wind Dir Waves Ship Positions

Caneli

Last reported at 2016-Apr-20 15:20 UTC. Time now 2016-Apr-30 07:12 UTC.
Position N 01°54' E 102°25'.
Warning: this ship's position is 9 days out of date.

Length 43 m; draft 3 m.

Type: Pleasure craft. MMSI: 235065392.

Date/timePositionNaut miles runAvg speedWind from/ knotsBaromVisibWave heightAir tempDewpointWater temp
2016-Apr-20 15:20N 01°54' E 102°25'8 9.6
2016-Apr-20 14:33N 01°50' E 102°32'10 9.1
2016-Apr-20 13:28N 01°46' E 102°41'60 9.9
2016-Apr-20 07:21N 01°13' E 103°32'810.2
2016-Apr-20 06:33N 01°11' E 103°40'8 8.5
2016-Apr-20 05:33N 01°11' E 103°48'2 2.1
2016-Apr-20 04:24N 01°13' E 103°50'1 1.5
2016-Apr-20 03:26N 01°15' E 103°50'0 0.0
2016-Apr-20 02:05N 01°15' E 103°50'0 0.0
2016-Apr-19 22:05N 01°15' E 103°50'0 0.0
2016-Apr-19 19:23N 01°15' E 103°50'0 0.0
2016-Apr-19 17:05N 01°15' E 103°50'0 0.0
2016-Apr-19 16:14N 01°15' E 103°50'0 0.0
2016-Apr-19 15:26N 01°15' E 103°50'0 0.0
2016-Apr-19 14:23N 01°15' E 103°50'0 0.0
2016-Apr-19 11:26N 01°15' E 103°50'0 0.0
2016-Apr-19 10:20N 01°15' E 103°50'0 0.0
2016-Apr-19 09:32N 01°15' E 103°50'0 0.0
2016-Apr-19 08:23N 01°15' E 103°50'0 0.0
2016-Apr-19 07:26N 01°15' E 103°50'0 0.0
2016-Apr-19 03:23N 01°15' E 103°50'0 0.0
2016-Apr-19 02:14N 01°15' E 103°50'0 0.0
2016-Apr-19 01:26N 01°15' E 103°50'0 0.0
2016-Apr-18 22:29N 01°15' E 103°50'0 0.0
2016-Apr-18 21:17N 01°15' E 103°50'0 0.0
2016-Apr-18 20:23N 01°15' E 103°50'0 0.0
2016-Apr-18 19:14N 01°15' E 103°50'0 0.0
2016-Apr-18 18:32N 01°15' E 103°50'0 0.0
2016-Apr-18 08:32N 01°15' E 103°50'0 0.0
2016-Apr-18 07:29N 01°15' E 103°50'0 0.0
2016-Apr-18 04:23N 01°15' E 103°50'0 0.0
2016-Apr-17 22:26N 01°15' E 103°50'0 0.0
2016-Apr-17 21:29N 01°15' E 103°50'0 0.0
2016-Apr-17 19:23N 01°15' E 103°50'0 0.0
2016-Apr-17 18:32N 01°15' E 103°50'0 0.0
2016-Apr-17 15:23N 01°15' E 103°50'0 0.0
2016-Apr-17 14:11N 01°15' E 103°50'0 0.0
2016-Apr-17 11:23N 01°15' E 103°50'0 0.0
2016-Apr-17 09:20N 01°15' E 103°50'0 0.0
2016-Apr-17 06:29N 01°15' E 103°50'0 0.0
2016-Apr-17 01:29N 01°15' E 103°50'0 0.0
2016-Apr-16 23:23N 01°15' E 103°50'0 0.0
2016-Apr-16 22:17N 01°15' E 103°50'0 0.0
2016-Apr-16 20:17N 01°15' E 103°50'0 0.0
2016-Apr-16 19:11N 01°15' E 103°50'0 0.0
2016-Apr-16 18:29N 01°15' E 103°50'0 0.0
2016-Apr-16 16:26N 01°15' E 103°50'0 0.0
2016-Apr-16 15:11N 01°15' E 103°50'0 0.0
2016-Apr-16 14:23N 01°15' E 103°50'0 0.0
2016-Apr-16 09:23N 01°15' E 103°50'0 0.0
2016-Apr-16 08:26N 01°15' E 103°50'0 0.0
2016-Apr-16 06:32N 01°15' E 103°50'0 0.0
2016-Apr-16 05:26N 01°15' E 103°50'0 0.0
2016-Apr-16 01:32N 01°15' E 103°50'0 0.0
2016-Apr-15 19:17N 01°15' E 103°50'0 0.0
2016-Apr-15 16:08N 01°15' E 103°50'0 0.0
2016-Apr-15 14:11N 01°15' E 103°50'0 0.0
2016-Apr-15 10:14N 01°15' E 103°50'0 0.0
2016-Apr-15 08:29N 01°15' E 103°50'0 0.0
2016-Apr-15 06:23N 01°15' E 103°50'0 0.0
2016-Apr-15 02:11N 01°15' E 103°50'0 0.0
2016-Apr-15 00:29N 01°15' E 103°50'0 0.0
2016-Apr-14 21:17N 01°15' E 103°50'0 0.0
2016-Apr-14 17:23N 01°15' E 103°50'0 0.0
2016-Apr-14 15:05N 01°15' E 103°50'0 0.0
2016-Apr-14 04:23N 01°15' E 103°50'0 0.0
2016-Apr-14 02:29N 01°15' E 103°50'0 0.0
2016-Apr-14 01:32N 01°15' E 103°50'0 0.0
2016-Apr-14 00:32N 01°15' E 103°50'0 0.0
2016-Apr-13 23:20N 01°15' E 103°50'0 0.0
2016-Apr-13 20:29N 01°15' E 103°50'0 0.0
2016-Apr-13 18:17N 01°15' E 103°50'0 0.0
2016-Apr-13 17:32N 01°15' E 103°50'0 0.0
2016-Apr-13 16:23N 01°15' E 103°50'0 0.0
2016-Apr-13 13:20N 01°15' E 103°50'0 0.0
2016-Apr-13 05:20N 01°15' E 103°50'0 0.0
2016-Apr-13 04:14N 01°15' E 103°50'0 0.0
2016-Apr-13 02:29N 01°15' E 103°50'0 0.0
2016-Apr-13 01:29N 01°15' E 103°50'0 0.0
2016-Apr-12 20:26N 01°15' E 103°50'0 0.0
2016-Apr-12 19:29N 01°15' E 103°50'0 0.0
2016-Apr-12 18:32N 01°15' E 103°50'0 0.0
2016-Apr-12 17:23N 01°15' E 103°50'0 0.0
2016-Apr-12 16:29N 01°15' E 103°50'0 0.0
2016-Apr-12 13:29N 01°15' E 103°50'0 0.0
2016-Apr-12 12:20N 01°15' E 103°50'0 0.0
2016-Apr-12 07:23N 01°15' E 103°50'0 0.0
2016-Apr-12 06:20N 01°15' E 103°50'0 0.0
2016-Apr-12 03:23N 01°15' E 103°50'0 0.0
2016-Apr-12 02:32N 01°15' E 103°50'0 0.0
2016-Apr-12 01:29N 01°15' E 103°50'0 0.0
2016-Apr-12 00:32N 01°15' E 103°50'0 0.0
2016-Apr-11 20:32N 01°15' E 103°50'0 0.0
2016-Apr-11 18:23N 01°15' E 103°50'0 0.0
2016-Apr-11 17:29N 01°15' E 103°50'0 0.0
2016-Apr-11 16:17N 01°15' E 103°50'0 0.0
2016-Apr-11 11:29N 01°15' E 103°50'0 0.0
2016-Apr-11 10:26N 01°15' E 103°50'0 0.0
2016-Apr-11 09:32N 01°15' E 103°50'0 0.0
2016-Apr-11 07:17N 01°15' E 103°50'0 0.0
2016-Apr-11 06:23N 01°15' E 103°50'0 0.0
2016-Apr-11 05:23N 01°15' E 103°50'0 0.1
2016-Apr-11 03:29N 01°15' E 103°51'0 0.1
2016-Apr-11 02:11N 01°15' E 103°50'0 0.0
2016-Apr-11 01:20N 01°15' E 103°50'0 0.0
2016-Apr-11 00:05N 01°15' E 103°50'0 0.0
2016-Apr-10 23:29N 01°15' E 103°50'0 0.0
2016-Apr-10 22:17N 01°15' E 103°50'0 0.0
2016-Apr-10 21:14N 01°15' E 103°50'0 0.0
2016-Apr-10 20:32N 01°15' E 103°50'0 0.0
2016-Apr-10 19:26N 01°15' E 103°50'0 0.0
2016-Apr-10 18:26N 01°15' E 103°50'0 0.0
2016-Apr-10 17:32N 01°15' E 103°50'0 0.0
2016-Apr-10 16:32N 01°15' E 103°50'  
Track history (hours):
 
Tides and Currents Weather Stations Pressure Air Temp Water Temp Dewpoint Dewpoint Depression Visibility Wind Speed Wind Dir Waves Ship Positions

Caneli

Last reported at 2016-Apr-20 15:20 UTC. Time now 2016-Apr-30 07:12 UTC.
Position N 01°54' E 102°25'.
Warning: this ship's position is 9 days out of date.

Length 43 m; draft 3 m.

Type: Pleasure craft. MMSI: 235065392.

Date/timePositionNaut miles runAvg speedWind from/ knotsBaromVisibWave heightAir tempDewpointWater temp
2016-Apr-20 15:20N 01°54' E 102°25'8 9.6
2016-Apr-20 14:33N 01°50' E 102°32'10 9.1
2016-Apr-20 13:28N 01°46' E 102°41'60 9.9
2016-Apr-20 07:21N 01°13' E 103°32'810.2
2016-Apr-20 06:33N 01°11' E 103°40'8 8.5
2016-Apr-20 05:33N 01°11' E 103°48'2 2.1
2016-Apr-20 04:24N 01°13' E 103°50'1 1.5
2016-Apr-20 03:26N 01°15' E 103°50'0 0.0
2016-Apr-20 02:05N 01°15' E 103°50'0 0.0
2016-Apr-19 22:05N 01°15' E 103°50'0 0.0
2016-Apr-19 19:23N 01°15' E 103°50'0 0.0
2016-Apr-19 17:05N 01°15' E 103°50'0 0.0
2016-Apr-19 16:14N 01°15' E 103°50'0 0.0
2016-Apr-19 15:26N 01°15' E 103°50'0 0.0
2016-Apr-19 14:23N 01°15' E 103°50'0 0.0
2016-Apr-19 11:26N 01°15' E 103°50'0 0.0
2016-Apr-19 10:20N 01°15' E 103°50'0 0.0
2016-Apr-19 09:32N 01°15' E 103°50'0 0.0
2016-Apr-19 08:23N 01°15' E 103°50'0 0.0
2016-Apr-19 07:26N 01°15' E 103°50'0 0.0
2016-Apr-19 03:23N 01°15' E 103°50'0 0.0
2016-Apr-19 02:14N 01°15' E 103°50'0 0.0
2016-Apr-19 01:26N 01°15' E 103°50'0 0.0
2016-Apr-18 22:29N 01°15' E 103°50'0 0.0
2016-Apr-18 21:17N 01°15' E 103°50'0 0.0
2016-Apr-18 20:23N 01°15' E 103°50'0 0.0
2016-Apr-18 19:14N 01°15' E 103°50'0 0.0
2016-Apr-18 18:32N 01°15' E 103°50'0 0.0
2016-Apr-18 08:32N 01°15' E 103°50'0 0.0
2016-Apr-18 07:29N 01°15' E 103°50'0 0.0
2016-Apr-18 04:23N 01°15' E 103°50'0 0.0
2016-Apr-17 22:26N 01°15' E 103°50'0 0.0
2016-Apr-17 21:29N 01°15' E 103°50'0 0.0
2016-Apr-17 19:23N 01°15' E 103°50'0 0.0
2016-Apr-17 18:32N 01°15' E 103°50'0 0.0
2016-Apr-17 15:23N 01°15' E 103°50'0 0.0
2016-Apr-17 14:11N 01°15' E 103°50'0 0.0
2016-Apr-17 11:23N 01°15' E 103°50'0 0.0
2016-Apr-17 09:20N 01°15' E 103°50'0 0.0
2016-Apr-17 06:29N 01°15' E 103°50'0 0.0
2016-Apr-17 01:29N 01°15' E 103°50'0 0.0
2016-Apr-16 23:23N 01°15' E 103°50'0 0.0
2016-Apr-16 22:17N 01°15' E 103°50'0 0.0
2016-Apr-16 20:17N 01°15' E 103°50'0 0.0
2016-Apr-16 19:11N 01°15' E 103°50'0 0.0
2016-Apr-16 18:29N 01°15' E 103°50'0 0.0
2016-Apr-16 16:26N 01°15' E 103°50'0 0.0
2016-Apr-16 15:11N 01°15' E 103°50'0 0.0
2016-Apr-16 14:23N 01°15' E 103°50'0 0.0
2016-Apr-16 09:23N 01°15' E 103°50'0 0.0
2016-Apr-16 08:26N 01°15' E 103°50'0 0.0
2016-Apr-16 06:32N 01°15' E 103°50'0 0.0
2016-Apr-16 05:26N 01°15' E 103°50'0 0.0
2016-Apr-16 01:32N 01°15' E 103°50'0 0.0
2016-Apr-15 19:17N 01°15' E 103°50'0 0.0
2016-Apr-15 16:08N 01°15' E 103°50'0 0.0
2016-Apr-15 14:11N 01°15' E 103°50'0 0.0
2016-Apr-15 10:14N 01°15' E 103°50'0 0.0
2016-Apr-15 08:29N 01°15' E 103°50'0 0.0
2016-Apr-15 06:23N 01°15' E 103°50'0 0.0
2016-Apr-15 02:11N 01°15' E 103°50'0 0.0
2016-Apr-15 00:29N 01°15' E 103°50'0 0.0
2016-Apr-14 21:17N 01°15' E 103°50'0 0.0
2016-Apr-14 17:23N 01°15' E 103°50'0 0.0
2016-Apr-14 15:05N 01°15' E 103°50'0 0.0
2016-Apr-14 04:23N 01°15' E 103°50'0 0.0
2016-Apr-14 02:29N 01°15' E 103°50'0 0.0
2016-Apr-14 01:32N 01°15' E 103°50'0 0.0
2016-Apr-14 00:32N 01°15' E 103°50'0 0.0
2016-Apr-13 23:20N 01°15' E 103°50'0 0.0
2016-Apr-13 20:29N 01°15' E 103°50'0 0.0
2016-Apr-13 18:17N 01°15' E 103°50'0 0.0
2016-Apr-13 17:32N 01°15' E 103°50'0 0.0
2016-Apr-13 16:23N 01°15' E 103°50'0 0.0
2016-Apr-13 13:20N 01°15' E 103°50'0 0.0
2016-Apr-13 05:20N 01°15' E 103°50'0 0.0
2016-Apr-13 04:14N 01°15' E 103°50'0 0.0
2016-Apr-13 02:29N 01°15' E 103°50'0 0.0
2016-Apr-13 01:29N 01°15' E 103°50'0 0.0
2016-Apr-12 20:26N 01°15' E 103°50'0 0.0
2016-Apr-12 19:29N 01°15' E 103°50'0 0.0
2016-Apr-12 18:32N 01°15' E 103°50'0 0.0
2016-Apr-12 17:23N 01°15' E 103°50'0 0.0
2016-Apr-12 16:29N 01°15' E 103°50'0 0.0
2016-Apr-12 13:29N 01°15' E 103°50'0 0.0
2016-Apr-12 12:20N 01°15' E 103°50'0 0.0
2016-Apr-12 07:23N 01°15' E 103°50'0 0.0
2016-Apr-12 06:20N 01°15' E 103°50'0 0.0
2016-Apr-12 03:23N 01°15' E 103°50'0 0.0
2016-Apr-12 02:32N 01°15' E 103°50'0 0.0
2016-Apr-12 01:29N 01°15' E 103°50'0 0.0
2016-Apr-12 00:32N 01°15' E 103°50'0 0.0
2016-Apr-11 20:32N 01°15' E 103°50'0 0.0
2016-Apr-11 18:23N 01°15' E 103°50'0 0.0
2016-Apr-11 17:29N 01°15' E 103°50'0 0.0
2016-Apr-11 16:17N 01°15' E 103°50'0 0.0
2016-Apr-11 11:29N 01°15' E 103°50'0 0.0
2016-Apr-11 10:26N 01°15' E 103°50'0 0.0
2016-Apr-11 09:32N 01°15' E 103°50'0 0.0
2016-Apr-11 07:17N 01°15' E 103°50'0 0.0
2016-Apr-11 06:23N 01°15' E 103°50'0 0.0
2016-Apr-11 05:23N 01°15' E 103°50'0 0.1
2016-Apr-11 03:29N 01°15' E 103°51'0 0.1
2016-Apr-11 02:11N 01°15' E 103°50'0 0.0
2016-Apr-11 01:20N 01°15' E 103°50'0 0.0
2016-Apr-11 00:05N 01°15' E 103°50'0 0.0
2016-Apr-10 23:29N 01°15' E 103°50'0 0.0
2016-Apr-10 22:17N 01°15' E 103°50'0 0.0
2016-Apr-10 21:14N 01°15' E 103°50'0 0.0
2016-Apr-10 20:32N 01°15' E 103°50'0 0.0
2016-Apr-10 19:26N 01°15' E 103°50'0 0.0
2016-Apr-10 18:26N 01°15' E 103°50'0 0.0
2016-Apr-10 17:32N 01°15' E 103°50'0 0.0
2016-Apr-10 16:32N 01°15' E 103°50'  

Dump ship's entire track history